sensor_id;sensor_type;location;lat;lon;timestamp;P1;durP1;ratioP1;P2;durP2;ratioP2
16979;SDS011;42288;52.182;21.156;2024-02-15T00:00:18;18.47;;;7.57;;
16979;SDS011;42288;52.182;21.156;2024-02-15T00:02:44;15.80;;;7.07;;
16979;SDS011;42288;52.182;21.156;2024-02-15T00:05:09;20.07;;;6.70;;
16979;SDS011;42288;52.182;21.156;2024-02-15T00:07:36;17.40;;;7.17;;
16979;SDS011;42288;52.182;21.156;2024-02-15T00:10:01;12.97;;;6.43;;
16979;SDS011;42288;52.182;21.156;2024-02-15T00:12:29;17.07;;;7.03;;
16979;SDS011;42288;52.182;21.156;2024-02-15T00:14:54;14.93;;;7.47;;
16979;SDS011;42288;52.182;21.156;2024-02-15T00:17:23;17.40;;;7.30;;
16979;SDS011;42288;52.182;21.156;2024-02-15T00:19:49;18.07;;;7.40;;
16979;SDS011;42288;52.182;21.156;2024-02-15T00:22:15;17.23;;;8.13;;
16979;SDS011;42288;52.182;21.156;2024-02-15T00:24:41;17.63;;;7.47;;
16979;SDS011;42288;52.182;21.156;2024-02-15T00:27:07;21.63;;;7.47;;
16979;SDS011;42288;52.182;21.156;2024-02-15T00:29:33;15.07;;;7.00;;
16979;SDS011;42288;52.182;21.156;2024-02-15T00:31:59;15.57;;;7.17;;
16979;SDS011;42288;52.182;21.156;2024-02-15T00:34:26;19.97;;;7.40;;
16979;SDS011;42288;52.182;21.156;2024-02-15T00:36:51;16.77;;;6.87;;
16979;SDS011;42288;52.182;21.156;2024-02-15T00:39:17;22.83;;;7.97;;
16979;SDS011;42288;52.182;21.156;2024-02-15T00:41:43;17.00;;;7.07;;
16979;SDS011;42288;52.182;21.156;2024-02-15T00:44:10;18.13;;;7.20;;
16979;SDS011;42288;52.182;21.156;2024-02-15T00:46:36;25.37;;;8.60;;
16979;SDS011;42288;52.182;21.156;2024-02-15T00:49:02;19.40;;;7.70;;
16979;SDS011;42288;52.182;21.156;2024-02-15T00:51:31;20.30;;;7.87;;
16979;SDS011;42288;52.182;21.156;2024-02-15T00:53:57;18.57;;;7.50;;
16979;SDS011;42288;52.182;21.156;2024-02-15T00:56:23;14.67;;;6.60;;
16979;SDS011;42288;52.182;21.156;2024-02-15T00:58:49;20.20;;;7.50;;
16979;SDS011;42288;52.182;21.156;2024-02-15T01:01:15;19.23;;;7.07;;
16979;SDS011;42288;52.182;21.156;2024-02-15T01:03:40;17.50;;;7.20;;
16979;SDS011;42288;52.182;21.156;2024-02-15T01:06:06;22.57;;;7.63;;
16979;SDS011;42288;52.182;21.156;2024-02-15T01:08:31;17.63;;;7.43;;
16979;SDS011;42288;52.182;21.156;2024-02-15T01:10:58;17.40;;;7.13;;
16979;SDS011;42288;52.182;21.156;2024-02-15T01:13:24;16.43;;;7.23;;
16979;SDS011;42288;52.182;21.156;2024-02-15T01:15:50;15.77;;;7.50;;
16979;SDS011;42288;52.182;21.156;2024-02-15T01:18:16;13.90;;;7.13;;
16979;SDS011;42288;52.182;21.156;2024-02-15T01:20:41;17.57;;;7.67;;
16979;SDS011;42288;52.182;21.156;2024-02-15T01:23:07;14.50;;;7.13;;
16979;SDS011;42288;52.182;21.156;2024-02-15T01:25:32;22.33;;;7.73;;
16979;SDS011;42288;52.182;21.156;2024-02-15T01:27:58;15.33;;;7.00;;
16979;SDS011;42288;52.182;21.156;2024-02-15T01:30:27;15.67;;;7.60;;
16979;SDS011;42288;52.182;21.156;2024-02-15T01:32:53;23.00;;;8.43;;
16979;SDS011;42288;52.182;21.156;2024-02-15T01:35:19;18.87;;;6.97;;
16979;SDS011;42288;52.182;21.156;2024-02-15T01:37:45;17.27;;;7.63;;
16979;SDS011;42288;52.182;21.156;2024-02-15T01:40:11;23.67;;;7.93;;
16979;SDS011;42288;52.182;21.156;2024-02-15T01:42:38;16.27;;;7.47;;
16979;SDS011;42288;52.182;21.156;2024-02-15T01:45:04;17.83;;;7.47;;
16979;SDS011;42288;52.182;21.156;2024-02-15T01:47:31;17.60;;;7.67;;
16979;SDS011;42288;52.182;21.156;2024-02-15T01:49:57;16.33;;;7.40;;
16979;SDS011;42288;52.182;21.156;2024-02-15T01:52:22;18.80;;;7.10;;
16979;SDS011;42288;52.182;21.156;2024-02-15T01:54:48;20.97;;;7.83;;
16979;SDS011;42288;52.182;21.156;2024-02-15T01:57:16;16.40;;;7.47;;
16979;SDS011;42288;52.182;21.156;2024-02-15T01:59:42;20.33;;;7.53;;
16979;SDS011;42288;52.182;21.156;2024-02-15T02:02:08;16.27;;;7.07;;
16979;SDS011;42288;52.182;21.156;2024-02-15T02:04:38;16.67;;;7.43;;
16979;SDS011;42288;52.182;21.156;2024-02-15T02:07:04;18.10;;;7.37;;
16979;SDS011;42288;52.182;21.156;2024-02-15T02:09:29;15.93;;;7.43;;
16979;SDS011;42288;52.182;21.156;2024-02-15T02:11:55;20.17;;;7.63;;
16979;SDS011;42288;52.182;21.156;2024-02-15T02:14:20;17.40;;;7.23;;
16979;SDS011;42288;52.182;21.156;2024-02-15T02:16:46;20.13;;;7.50;;
16979;SDS011;42288;52.182;21.156;2024-02-15T02:19:12;14.10;;;6.47;;
16979;SDS011;42288;52.182;21.156;2024-02-15T02:21:37;19.73;;;7.77;;
16979;SDS011;42288;52.182;21.156;2024-02-15T02:24:04;17.13;;;7.80;;
16979;SDS011;42288;52.182;21.156;2024-02-15T02:26:38;19.10;;;7.90;;
16979;SDS011;42288;52.182;21.156;2024-02-15T02:29:04;15.47;;;6.67;;
16979;SDS011;42288;52.182;21.156;2024-02-15T02:31:33;16.50;;;7.33;;
16979;SDS011;42288;52.182;21.156;2024-02-15T02:33:59;17.43;;;7.63;;
16979;SDS011;42288;52.182;21.156;2024-02-15T02:36:25;17.43;;;7.33;;
16979;SDS011;42288;52.182;21.156;2024-02-15T02:38:51;14.90;;;7.00;;
16979;SDS011;42288;52.182;21.156;2024-02-15T02:41:17;16.80;;;7.53;;
16979;SDS011;42288;52.182;21.156;2024-02-15T02:43:44;21.47;;;7.60;;
16979;SDS011;42288;52.182;21.156;2024-02-15T02:46:10;20.00;;;7.73;;
16979;SDS011;42288;52.182;21.156;2024-02-15T02:48:36;14.03;;;6.87;;
16979;SDS011;42288;52.182;21.156;2024-02-15T02:51:02;19.67;;;7.90;;
16979;SDS011;42288;52.182;21.156;2024-02-15T02:53:28;15.83;;;7.33;;
16979;SDS011;42288;52.182;21.156;2024-02-15T02:55:55;18.53;;;7.13;;
16979;SDS011;42288;52.182;21.156;2024-02-15T02:58:22;16.47;;;7.70;;
16979;SDS011;42288;52.182;21.156;2024-02-15T03:00:48;16.43;;;7.50;;
16979;SDS011;42288;52.182;21.156;2024-02-15T03:03:14;14.63;;;7.30;;
16979;SDS011;42288;52.182;21.156;2024-02-15T03:05:40;17.30;;;8.07;;
16979;SDS011;42288;52.182;21.156;2024-02-15T03:08:06;18.37;;;7.67;;
16979;SDS011;42288;52.182;21.156;2024-02-15T03:10:33;18.07;;;7.50;;
16979;SDS011;42288;52.182;21.156;2024-02-15T03:12:59;18.70;;;7.37;;
16979;SDS011;42288;52.182;21.156;2024-02-15T03:15:25;16.30;;;8.30;;
16979;SDS011;42288;52.182;21.156;2024-02-15T03:17:50;20.03;;;7.87;;
16979;SDS011;42288;52.182;21.156;2024-02-15T03:20:16;17.43;;;7.43;;
16979;SDS011;42288;52.182;21.156;2024-02-15T03:22:55;18.53;;;8.03;;
16979;SDS011;42288;52.182;21.156;2024-02-15T03:25:21;17.73;;;8.13;;
16979;SDS011;42288;52.182;21.156;2024-02-15T03:27:54;17.97;;;7.90;;
16979;SDS011;42288;52.182;21.156;2024-02-15T03:30:25;15.17;;;7.23;;
16979;SDS011;42288;52.182;21.156;2024-02-15T03:32:51;19.17;;;7.27;;
16979;SDS011;42288;52.182;21.156;2024-02-15T03:35:18;18.83;;;7.67;;
16979;SDS011;42288;52.182;21.156;2024-02-15T03:37:44;14.37;;;7.30;;
16979;SDS011;42288;52.182;21.156;2024-02-15T03:40:10;18.50;;;7.80;;
16979;SDS011;42288;52.182;21.156;2024-02-15T03:42:36;15.70;;;7.97;;
16979;SDS011;42288;52.182;21.156;2024-02-15T03:45:04;17.17;;;7.27;;
16979;SDS011;42288;52.182;21.156;2024-02-15T03:47:33;15.97;;;7.50;;
16979;SDS011;42288;52.182;21.156;2024-02-15T03:50:02;19.17;;;8.00;;
16979;SDS011;42288;52.182;21.156;2024-02-15T03:52:29;19.87;;;8.10;;
16979;SDS011;42288;52.182;21.156;2024-02-15T03:54:58;19.70;;;7.90;;
16979;SDS011;42288;52.182;21.156;2024-02-15T03:57:24;24.60;;;9.10;;
16979;SDS011;42288;52.182;21.156;2024-02-15T03:59:50;18.00;;;7.63;;
16979;SDS011;42288;52.182;21.156;2024-02-15T04:02:21;20.07;;;8.13;;
16979;SDS011;42288;52.182;21.156;2024-02-15T04:04:48;17.20;;;7.50;;
16979;SDS011;42288;52.182;21.156;2024-02-15T04:07:17;19.40;;;8.23;;
16979;SDS011;42288;52.182;21.156;2024-02-15T04:09:43;18.47;;;7.63;;
16979;SDS011;42288;52.182;21.156;2024-02-15T04:12:10;17.30;;;8.47;;
16979;SDS011;42288;52.182;21.156;2024-02-15T04:14:36;19.67;;;7.67;;
16979;SDS011;42288;52.182;21.156;2024-02-15T04:17:03;21.10;;;8.20;;
16979;SDS011;42288;52.182;21.156;2024-02-15T04:19:29;14.90;;;7.40;;
16979;SDS011;42288;52.182;21.156;2024-02-15T04:21:56;20.70;;;8.07;;
16979;SDS011;42288;52.182;21.156;2024-02-15T04:24:21;18.57;;;8.27;;
16979;SDS011;42288;52.182;21.156;2024-02-15T04:26:48;21.63;;;8.00;;
16979;SDS011;42288;52.182;21.156;2024-02-15T04:29:17;20.80;;;8.57;;
16979;SDS011;42288;52.182;21.156;2024-02-15T04:31:45;20.90;;;7.90;;
16979;SDS011;42288;52.182;21.156;2024-02-15T04:34:15;17.87;;;7.40;;
16979;SDS011;42288;52.182;21.156;2024-02-15T04:36:41;18.00;;;8.30;;
16979;SDS011;42288;52.182;21.156;2024-02-15T04:39:10;21.53;;;8.43;;
16979;SDS011;42288;52.182;21.156;2024-02-15T04:41:39;19.10;;;7.60;;
16979;SDS011;42288;52.182;21.156;2024-02-15T04:44:05;21.37;;;7.10;;
16979;SDS011;42288;52.182;21.156;2024-02-15T04:46:33;19.23;;;8.50;;
16979;SDS011;42288;52.182;21.156;2024-02-15T04:48:59;17.00;;;8.63;;
16979;SDS011;42288;52.182;21.156;2024-02-15T04:51:27;21.07;;;8.40;;
16979;SDS011;42288;52.182;21.156;2024-02-15T04:53:52;18.67;;;8.30;;
16979;SDS011;42288;52.182;21.156;2024-02-15T04:56:18;17.87;;;7.57;;
16979;SDS011;42288;52.182;21.156;2024-02-15T04:58:45;20.27;;;8.07;;
16979;SDS011;42288;52.182;21.156;2024-02-15T05:01:15;19.20;;;8.87;;
16979;SDS011;42288;52.182;21.156;2024-02-15T05:03:42;17.80;;;7.87;;
16979;SDS011;42288;52.182;21.156;2024-02-15T05:06:11;21.67;;;8.37;;
16979;SDS011;42288;52.182;21.156;2024-02-15T05:08:38;17.77;;;8.90;;
16979;SDS011;42288;52.182;21.156;2024-02-15T05:11:10;16.33;;;7.83;;
16979;SDS011;42288;52.182;21.156;2024-02-15T05:13:43;20.73;;;9.13;;
16979;SDS011;42288;52.182;21.156;2024-02-15T05:16:15;20.03;;;8.07;;
16979;SDS011;42288;52.182;21.156;2024-02-15T05:18:41;15.53;;;8.10;;
16979;SDS011;42288;52.182;21.156;2024-02-15T05:21:07;16.93;;;8.20;;
16979;SDS011;42288;52.182;21.156;2024-02-15T05:23:35;19.10;;;8.00;;
16979;SDS011;42288;52.182;21.156;2024-02-15T05:26:02;20.03;;;8.73;;
16979;SDS011;42288;52.182;21.156;2024-02-15T05:28:28;17.83;;;8.20;;
16979;SDS011;42288;52.182;21.156;2024-02-15T05:31:08;17.27;;;8.53;;
16979;SDS011;42288;52.182;21.156;2024-02-15T05:33:45;23.10;;;8.00;;
16979;SDS011;42288;52.182;21.156;2024-02-15T05:36:18;19.67;;;8.60;;
16979;SDS011;42288;52.182;21.156;2024-02-15T05:38:49;21.47;;;8.47;;
16979;SDS011;42288;52.182;21.156;2024-02-15T05:41:16;21.13;;;8.60;;
16979;SDS011;42288;52.182;21.156;2024-02-15T05:43:42;19.63;;;8.67;;
16979;SDS011;42288;52.182;21.156;2024-02-15T05:46:08;16.57;;;7.77;;
16979;SDS011;42288;52.182;21.156;2024-02-15T05:48:35;17.97;;;8.07;;
16979;SDS011;42288;52.182;21.156;2024-02-15T05:51:04;17.57;;;8.20;;
16979;SDS011;42288;52.182;21.156;2024-02-15T05:53:31;20.37;;;8.30;;
16979;SDS011;42288;52.182;21.156;2024-02-15T05:56:01;18.73;;;8.97;;
16979;SDS011;42288;52.182;21.156;2024-02-15T05:58:31;17.90;;;8.20;;
16979;SDS011;42288;52.182;21.156;2024-02-15T06:00:57;20.00;;;8.97;;
16979;SDS011;42288;52.182;21.156;2024-02-15T06:03:29;25.50;;;9.03;;
16979;SDS011;42288;52.182;21.156;2024-02-15T06:05:56;20.80;;;8.90;;
16979;SDS011;42288;52.182;21.156;2024-02-15T06:08:26;19.00;;;8.90;;
16979;SDS011;42288;52.182;21.156;2024-02-15T06:10:52;25.67;;;8.37;;
16979;SDS011;42288;52.182;21.156;2024-02-15T06:13:18;22.20;;;9.80;;
16979;SDS011;42288;52.182;21.156;2024-02-15T06:15:45;24.97;;;10.73;;
16979;SDS011;42288;52.182;21.156;2024-02-15T06:18:14;24.50;;;10.57;;
16979;SDS011;42288;52.182;21.156;2024-02-15T06:20:41;23.03;;;9.83;;
16979;SDS011;42288;52.182;21.156;2024-02-15T06:23:08;18.50;;;8.67;;
16979;SDS011;42288;52.182;21.156;2024-02-15T06:25:34;22.03;;;8.57;;
16979;SDS011;42288;52.182;21.156;2024-02-15T06:28:00;27.50;;;10.47;;
16979;SDS011;42288;52.182;21.156;2024-02-15T06:30:38;22.97;;;10.07;;
16979;SDS011;42288;52.182;21.156;2024-02-15T06:33:23;24.03;;;10.77;;
16979;SDS011;42288;52.182;21.156;2024-02-15T06:36:07;23.10;;;10.20;;
16979;SDS011;42288;52.182;21.156;2024-02-15T06:38:51;31.77;;;12.73;;
16979;SDS011;42288;52.182;21.156;2024-02-15T06:41:36;29.80;;;11.00;;
16979;SDS011;42288;52.182;21.156;2024-02-15T06:44:01;22.37;;;10.63;;
16979;SDS011;42288;52.182;21.156;2024-02-15T06:46:27;24.47;;;11.07;;
16979;SDS011;42288;52.182;21.156;2024-02-15T06:48:52;25.23;;;10.43;;
16979;SDS011;42288;52.182;21.156;2024-02-15T06:51:19;28.30;;;12.27;;
16979;SDS011;42288;52.182;21.156;2024-02-15T06:53:45;26.90;;;11.90;;
16979;SDS011;42288;52.182;21.156;2024-02-15T06:56:11;24.40;;;11.03;;
16979;SDS011;42288;52.182;21.156;2024-02-15T06:58:39;30.47;;;12.30;;
16979;SDS011;42288;52.182;21.156;2024-02-15T07:01:05;27.40;;;11.57;;
16979;SDS011;42288;52.182;21.156;2024-02-15T07:03:31;26.87;;;12.20;;
16979;SDS011;42288;52.182;21.156;2024-02-15T07:05:59;29.83;;;13.17;;
16979;SDS011;42288;52.182;21.156;2024-02-15T07:08:25;29.00;;;13.70;;
16979;SDS011;42288;52.182;21.156;2024-02-15T07:10:50;29.70;;;13.17;;
16979;SDS011;42288;52.182;21.156;2024-02-15T07:13:19;29.00;;;11.67;;
16979;SDS011;42288;52.182;21.156;2024-02-15T07:15:45;29.50;;;11.97;;
16979;SDS011;42288;52.182;21.156;2024-02-15T07:18:10;27.13;;;12.67;;
16979;SDS011;42288;52.182;21.156;2024-02-15T07:20:41;23.00;;;11.63;;
16979;SDS011;42288;52.182;21.156;2024-02-15T07:23:06;28.30;;;12.13;;
16979;SDS011;42288;52.182;21.156;2024-02-15T07:25:32;31.17;;;14.43;;
16979;SDS011;42288;52.182;21.156;2024-02-15T07:27:57;29.60;;;13.23;;
16979;SDS011;42288;52.182;21.156;2024-02-15T07:30:23;32.27;;;13.17;;
16979;SDS011;42288;52.182;21.156;2024-02-15T07:32:49;26.97;;;12.27;;
16979;SDS011;42288;52.182;21.156;2024-02-15T07:35:15;32.13;;;14.20;;
16979;SDS011;42288;52.182;21.156;2024-02-15T07:37:54;27.20;;;12.87;;
16979;SDS011;42288;52.182;21.156;2024-02-15T07:40:22;26.73;;;13.47;;
16979;SDS011;42288;52.182;21.156;2024-02-15T07:42:48;30.93;;;14.33;;
16979;SDS011;42288;52.182;21.156;2024-02-15T07:45:14;31.27;;;15.70;;
16979;SDS011;42288;52.182;21.156;2024-02-15T07:47:40;31.57;;;14.23;;
16979;SDS011;42288;52.182;21.156;2024-02-15T07:50:05;29.60;;;14.80;;
16979;SDS011;42288;52.182;21.156;2024-02-15T07:52:34;33.13;;;14.60;;
16979;SDS011;42288;52.182;21.156;2024-02-15T07:55:00;32.60;;;13.70;;
16979;SDS011;42288;52.182;21.156;2024-02-15T07:57:26;34.93;;;14.27;;
16979;SDS011;42288;52.182;21.156;2024-02-15T07:59:52;29.37;;;14.10;;
16979;SDS011;42288;52.182;21.156;2024-02-15T08:02:17;32.50;;;14.37;;
16979;SDS011;42288;52.182;21.156;2024-02-15T08:04:47;30.03;;;13.70;;
16979;SDS011;42288;52.182;21.156;2024-02-15T08:07:13;25.03;;;13.53;;
16979;SDS011;42288;52.182;21.156;2024-02-15T08:09:39;37.63;;;15.03;;
16979;SDS011;42288;52.182;21.156;2024-02-15T08:12:06;28.57;;;13.53;;
16979;SDS011;42288;52.182;21.156;2024-02-15T08:14:32;32.73;;;14.07;;
16979;SDS011;42288;52.182;21.156;2024-02-15T08:16:57;28.73;;;13.33;;
16979;SDS011;42288;52.182;21.156;2024-02-15T08:19:23;29.87;;;14.10;;
16979;SDS011;42288;52.182;21.156;2024-02-15T08:21:49;31.90;;;15.10;;
16979;SDS011;42288;52.182;21.156;2024-02-15T08:24:16;39.13;;;15.13;;
16979;SDS011;42288;52.182;21.156;2024-02-15T08:26:42;35.37;;;15.60;;
16979;SDS011;42288;52.182;21.156;2024-02-15T08:29:07;33.07;;;16.23;;
16979;SDS011;42288;52.182;21.156;2024-02-15T08:31:34;36.50;;;15.20;;
16979;SDS011;42288;52.182;21.156;2024-02-15T08:34:01;34.90;;;15.90;;
16979;SDS011;42288;52.182;21.156;2024-02-15T08:36:27;37.77;;;15.50;;
16979;SDS011;42288;52.182;21.156;2024-02-15T08:38:52;37.63;;;16.27;;
16979;SDS011;42288;52.182;21.156;2024-02-15T08:41:19;33.33;;;15.30;;
16979;SDS011;42288;52.182;21.156;2024-02-15T08:43:46;33.47;;;15.87;;
16979;SDS011;42288;52.182;21.156;2024-02-15T08:46:13;29.97;;;15.30;;
16979;SDS011;42288;52.182;21.156;2024-02-15T08:48:39;38.30;;;15.40;;
16979;SDS011;42288;52.182;21.156;2024-02-15T08:51:05;40.03;;;15.97;;
16979;SDS011;42288;52.182;21.156;2024-02-15T08:53:33;36.27;;;17.60;;
16979;SDS011;42288;52.182;21.156;2024-02-15T08:56:01;42.53;;;17.20;;
16979;SDS011;42288;52.182;21.156;2024-02-15T08:58:28;34.63;;;15.07;;
16979;SDS011;42288;52.182;21.156;2024-02-15T09:00:55;38.77;;;15.50;;
16979;SDS011;42288;52.182;21.156;2024-02-15T09:03:23;41.03;;;17.53;;
16979;SDS011;42288;52.182;21.156;2024-02-15T09:05:49;41.17;;;17.50;;
16979;SDS011;42288;52.182;21.156;2024-02-15T09:08:15;34.57;;;16.87;;
16979;SDS011;42288;52.182;21.156;2024-02-15T09:10:45;41.13;;;18.30;;
16979;SDS011;42288;52.182;21.156;2024-02-15T09:13:17;42.10;;;18.47;;
16979;SDS011;42288;52.182;21.156;2024-02-15T09:15:43;34.10;;;17.83;;
16979;SDS011;42288;52.182;21.156;2024-02-15T09:18:08;38.60;;;16.37;;
16979;SDS011;42288;52.182;21.156;2024-02-15T09:20:37;37.00;;;16.37;;
16979;SDS011;42288;52.182;21.156;2024-02-15T09:23:05;43.47;;;17.10;;
16979;SDS011;42288;52.182;21.156;2024-02-15T09:25:34;43.20;;;17.00;;
16979;SDS011;42288;52.182;21.156;2024-02-15T09:28:03;41.20;;;17.30;;
16979;SDS011;42288;52.182;21.156;2024-02-15T09:30:28;41.70;;;19.20;;
16979;SDS011;42288;52.182;21.156;2024-02-15T09:32:56;41.20;;;18.40;;
16979;SDS011;42288;52.182;21.156;2024-02-15T09:35:22;39.43;;;17.50;;
16979;SDS011;42288;52.182;21.156;2024-02-15T09:37:49;37.20;;;18.13;;
16979;SDS011;42288;52.182;21.156;2024-02-15T09:40:15;48.70;;;18.33;;
16979;SDS011;42288;52.182;21.156;2024-02-15T09:42:43;36.20;;;17.77;;
16979;SDS011;42288;52.182;21.156;2024-02-15T09:45:12;40.30;;;18.57;;
16979;SDS011;42288;52.182;21.156;2024-02-15T09:47:43;48.13;;;18.73;;
16979;SDS011;42288;52.182;21.156;2024-02-15T09:50:09;46.90;;;19.17;;
16979;SDS011;42288;52.182;21.156;2024-02-15T09:52:40;44.77;;;19.43;;
16979;SDS011;42288;52.182;21.156;2024-02-15T09:55:09;39.83;;;18.30;;
16979;SDS011;42288;52.182;21.156;2024-02-15T09:57:38;47.37;;;18.73;;
16979;SDS011;42288;52.182;21.156;2024-02-15T10:00:05;47.43;;;19.47;;
16979;SDS011;42288;52.182;21.156;2024-02-15T10:02:32;42.33;;;19.93;;
16979;SDS011;42288;52.182;21.156;2024-02-15T10:05:01;40.90;;;19.63;;
16979;SDS011;42288;52.182;21.156;2024-02-15T10:07:27;39.60;;;19.13;;
16979;SDS011;42288;52.182;21.156;2024-02-15T10:09:53;43.20;;;19.40;;
16979;SDS011;42288;52.182;21.156;2024-02-15T10:12:19;39.63;;;19.27;;
16979;SDS011;42288;52.182;21.156;2024-02-15T10:14:50;39.70;;;19.90;;
16979;SDS011;42288;52.182;21.156;2024-02-15T10:17:18;41.63;;;20.73;;
16979;SDS011;42288;52.182;21.156;2024-02-15T10:19:44;44.60;;;21.20;;
16979;SDS011;42288;52.182;21.156;2024-02-15T10:22:27;46.13;;;20.77;;
16979;SDS011;42288;52.182;21.156;2024-02-15T10:24:52;50.20;;;20.70;;
16979;SDS011;42288;52.182;21.156;2024-02-15T10:27:35;50.40;;;20.60;;
16979;SDS011;42288;52.182;21.156;2024-02-15T10:30:13;40.07;;;19.50;;
16979;SDS011;42288;52.182;21.156;2024-02-15T10:32:40;47.73;;;21.57;;
16979;SDS011;42288;52.182;21.156;2024-02-15T10:35:06;42.33;;;21.20;;
16979;SDS011;42288;52.182;21.156;2024-02-15T10:37:32;41.83;;;19.23;;
16979;SDS011;42288;52.182;21.156;2024-02-15T10:40:06;46.80;;;20.27;;
16979;SDS011;42288;52.182;21.156;2024-02-15T10:42:33;46.07;;;19.70;;
16979;SDS011;42288;52.182;21.156;2024-02-15T10:45:01;44.80;;;19.57;;
16979;SDS011;42288;52.182;21.156;2024-02-15T10:47:30;43.37;;;20.57;;
16979;SDS011;42288;52.182;21.156;2024-02-15T10:49:55;49.67;;;20.97;;
16979;SDS011;42288;52.182;21.156;2024-02-15T10:52:22;39.63;;;19.93;;
16979;SDS011;42288;52.182;21.156;2024-02-15T10:55:04;40.30;;;19.77;;
16979;SDS011;42288;52.182;21.156;2024-02-15T10:57:38;38.70;;;20.23;;
16979;SDS011;42288;52.182;21.156;2024-02-15T11:00:09;42.47;;;19.93;;
16979;SDS011;42288;52.182;21.156;2024-02-15T11:03:07;40.73;;;21.30;;
16979;SDS011;42288;52.182;21.156;2024-02-15T11:05:35;45.30;;;19.97;;
16979;SDS011;42288;52.182;21.156;2024-02-15T11:08:05;42.87;;;20.80;;
16979;SDS011;42288;52.182;21.156;2024-02-15T11:10:33;43.60;;;20.47;;
16979;SDS011;42288;52.182;21.156;2024-02-15T11:13:00;38.80;;;19.20;;
16979;SDS011;42288;52.182;21.156;2024-02-15T11:16:00;45.83;;;20.77;;
16979;SDS011;42288;52.182;21.156;2024-02-15T11:21:11;40.23;;;21.03;;
16979;SDS011;42288;52.182;21.156;2024-02-15T11:23:37;43.57;;;20.47;;
16979;SDS011;42288;52.182;21.156;2024-02-15T11:26:03;36.77;;;19.37;;
16979;SDS011;42288;52.182;21.156;2024-02-15T11:30:55;44.87;;;19.40;;
16979;SDS011;42288;52.182;21.156;2024-02-15T11:36:11;44.87;;;21.03;;
16979;SDS011;42288;52.182;21.156;2024-02-15T11:38:40;46.50;;;20.97;;
16979;SDS011;42288;52.182;21.156;2024-02-15T11:41:08;40.00;;;20.03;;
16979;SDS011;42288;52.182;21.156;2024-02-15T11:46:18;42.27;;;20.97;;
16979;SDS011;42288;52.182;21.156;2024-02-15T11:48:47;42.17;;;19.80;;
16979;SDS011;42288;52.182;21.156;2024-02-15T11:51:29;45.07;;;20.63;;
16979;SDS011;42288;52.182;21.156;2024-02-15T11:54:02;40.77;;;19.60;;
16979;SDS011;42288;52.182;21.156;2024-02-15T11:56:31;37.97;;;19.70;;
16979;SDS011;42288;52.182;21.156;2024-02-15T11:59:29;43.83;;;19.70;;
16979;SDS011;42288;52.182;21.156;2024-02-15T12:01:57;39.77;;;18.53;;
16979;SDS011;42288;52.182;21.156;2024-02-15T12:04:42;36.50;;;19.10;;
16979;SDS011;42288;52.182;21.156;2024-02-15T12:07:28;35.33;;;18.00;;
16979;SDS011;42288;52.182;21.156;2024-02-15T12:10:15;34.53;;;17.83;;
16979;SDS011;42288;52.182;21.156;2024-02-15T12:13:00;36.07;;;17.40;;
16979;SDS011;42288;52.182;21.156;2024-02-15T12:15:55;38.53;;;17.50;;
16979;SDS011;42288;52.182;21.156;2024-02-15T12:18:43;38.20;;;19.60;;
16979;SDS011;42288;52.182;21.156;2024-02-15T12:21:13;44.83;;;19.80;;
16979;SDS011;42288;52.182;21.156;2024-02-15T12:23:42;35.57;;;17.63;;
16979;SDS011;42288;52.182;21.156;2024-02-15T12:26:08;30.90;;;17.07;;
16979;SDS011;42288;52.182;21.156;2024-02-15T12:28:34;40.60;;;19.57;;
16979;SDS011;42288;52.182;21.156;2024-02-15T12:31:00;31.87;;;17.47;;
16979;SDS011;42288;52.182;21.156;2024-02-15T12:33:26;41.10;;;19.27;;
16979;SDS011;42288;52.182;21.156;2024-02-15T12:35:52;40.70;;;18.10;;
16979;SDS011;42288;52.182;21.156;2024-02-15T12:38:32;35.50;;;17.00;;
16979;SDS011;42288;52.182;21.156;2024-02-15T12:40:59;36.67;;;18.20;;
16979;SDS011;42288;52.182;21.156;2024-02-15T12:43:27;42.97;;;19.13;;
16979;SDS011;42288;52.182;21.156;2024-02-15T12:45:53;39.37;;;19.63;;
16979;SDS011;42288;52.182;21.156;2024-02-15T12:48:21;35.10;;;17.40;;
16979;SDS011;42288;52.182;21.156;2024-02-15T12:50:47;35.70;;;18.87;;
16979;SDS011;42288;52.182;21.156;2024-02-15T12:53:12;43.77;;;18.20;;
16979;SDS011;42288;52.182;21.156;2024-02-15T12:55:51;32.53;;;17.93;;
16979;SDS011;42288;52.182;21.156;2024-02-15T12:58:21;37.60;;;17.63;;
16979;SDS011;42288;52.182;21.156;2024-02-15T13:00:49;32.37;;;17.13;;
16979;SDS011;42288;52.182;21.156;2024-02-15T13:03:15;34.60;;;16.57;;
16979;SDS011;42288;52.182;21.156;2024-02-15T13:05:43;33.37;;;16.93;;
16979;SDS011;42288;52.182;21.156;2024-02-15T13:08:08;37.53;;;16.50;;
16979;SDS011;42288;52.182;21.156;2024-02-15T13:10:42;38.17;;;17.97;;
16979;SDS011;42288;52.182;21.156;2024-02-15T13:13:07;33.50;;;17.20;;
16979;SDS011;42288;52.182;21.156;2024-02-15T13:15:36;38.53;;;18.30;;
16979;SDS011;42288;52.182;21.156;2024-02-15T13:18:02;35.40;;;17.53;;
16979;SDS011;42288;52.182;21.156;2024-02-15T13:20:29;40.30;;;17.93;;
16979;SDS011;42288;52.182;21.156;2024-02-15T13:22:57;33.07;;;17.33;;
16979;SDS011;42288;52.182;21.156;2024-02-15T13:25:26;35.53;;;17.33;;
16979;SDS011;42288;52.182;21.156;2024-02-15T13:27:53;35.30;;;17.40;;
16979;SDS011;42288;52.182;21.156;2024-02-15T13:30:18;36.73;;;16.67;;
16979;SDS011;42288;52.182;21.156;2024-02-15T13:32:48;39.37;;;17.90;;
16979;SDS011;42288;52.182;21.156;2024-02-15T13:35:19;36.10;;;16.83;;
16979;SDS011;42288;52.182;21.156;2024-02-15T13:37:51;36.67;;;16.30;;
16979;SDS011;42288;52.182;21.156;2024-02-15T13:40:23;38.33;;;16.67;;
16979;SDS011;42288;52.182;21.156;2024-02-15T13:42:56;36.30;;;16.83;;
16979;SDS011;42288;52.182;21.156;2024-02-15T13:45:30;37.73;;;17.03;;
16979;SDS011;42288;52.182;21.156;2024-02-15T13:47:59;34.87;;;15.53;;
16979;SDS011;42288;52.182;21.156;2024-02-15T13:50:29;32.07;;;15.80;;
16979;SDS011;42288;52.182;21.156;2024-02-15T13:52:57;33.97;;;16.27;;
16979;SDS011;42288;52.182;21.156;2024-02-15T13:55:23;39.77;;;17.53;;
16979;SDS011;42288;52.182;21.156;2024-02-15T13:57:52;37.03;;;16.77;;
16979;SDS011;42288;52.182;21.156;2024-02-15T14:00:19;38.87;;;16.60;;
16979;SDS011;42288;52.182;21.156;2024-02-15T14:02:48;33.60;;;15.63;;
16979;SDS011;42288;52.182;21.156;2024-02-15T14:05:14;30.70;;;15.77;;
16979;SDS011;42288;52.182;21.156;2024-02-15T14:07:47;38.93;;;16.83;;
16979;SDS011;42288;52.182;21.156;2024-02-15T14:10:14;33.27;;;15.40;;
16979;SDS011;42288;52.182;21.156;2024-02-15T14:12:43;30.53;;;15.47;;
16979;SDS011;42288;52.182;21.156;2024-02-15T14:15:09;33.80;;;15.10;;
16979;SDS011;42288;52.182;21.156;2024-02-15T14:17:36;36.33;;;16.03;;
16979;SDS011;42288;52.182;21.156;2024-02-15T14:20:02;36.17;;;15.80;;
16979;SDS011;42288;52.182;21.156;2024-02-15T14:22:33;32.13;;;15.80;;
16979;SDS011;42288;52.182;21.156;2024-02-15T14:24:59;32.60;;;15.70;;
16979;SDS011;42288;52.182;21.156;2024-02-15T14:27:24;29.33;;;15.13;;
16979;SDS011;42288;52.182;21.156;2024-02-15T14:29:50;35.60;;;16.10;;